Time;durP1;ratioP1;P1;durP2;ratioP2;P2;SDS_P1;SDS_P2;PMS_P1;PMS_P2;Temp;Humidity;BMP_temperature;BMP_pressure;BME280_temperature;BME280_humidity;BME280_pressure;Samples;Min_cycle;Max_cycle;Signal;HPM_P1;HPM_P2
2021/10/02 00:35:20;;;;;;;;;;;17.90;81.40;;;;;;4948431;28;96098;-56
2021/10/02 00:45:57;;;;;;;;;;;17.90;81.60;;;;;;4978076;28;96470;-49
2021/10/02 00:48:29;;;;;;;;;;;17.90;81.30;;;;;;4988502;28;96862;-55
2021/10/02 00:51:00;;;;;;;;;;;17.90;81.20;;;;;;4984364;28;95801;-47
2021/10/02 00:53:31;;;;;;;;;;;18.00;81.20;;;;;;4987846;28;95787;-58
2021/10/02 00:56:01;;;;;;;;;;;18.00;81.30;;;;;;4985031;28;97127;-55
2021/10/02 00:58:32;;;;;;;;;;;18.00;81.10;;;;;;4980624;28;95705;-56
2021/10/02 01:01:04;;;;;;;;;;;18.00;81.10;;;;;;4982641;28;95758;-56
2021/10/02 01:03:50;;;;;;;;;;;17.90;81.00;;;;;;4990581;28;96122;-46
2021/10/02 01:06:36;;;;;;;;;;;18.00;81.00;;;;;;4991877;28;96579;-54
2021/10/02 01:09:32;;;;;;;;;;;18.00;80.90;;;;;;4985621;28;95918;-47
2021/10/02 01:12:06;;;;;;;;;;;18.00;80.90;;;;;;4980430;28;100259;-57
2021/10/02 01:14:50;;;;;;;;;;;18.00;80.80;;;;;;4991788;28;95815;-48
2021/10/02 01:17:31;;;;;;;;;;;18.00;80.60;;;;;;4984414;28;96472;-49
2021/10/02 01:20:11;;;;;;;;;;;18.00;80.60;;;;;;4991188;28;95600;-47
2021/10/02 01:23:06;;;;;;;;;;;18.00;80.60;;;;;;4989472;28;96133;-57
2021/10/02 01:25:55;;;;;;;;;;;18.10;72.40;;;;;;4987727;28;95765;-47
2021/10/02 01:28:27;;;;;;;;;;;18.00;80.50;;;;;;4990952;28;95867;-56
2021/10/02 01:33:44;;;;;;;;;;;18.00;80.40;;;;;;5022315;27;95820;-48
2021/10/02 01:36:41;;;;;;;;;;;18.10;80.40;;;;;;4988542;28;95929;-59
2021/10/02 01:47:47;;;;;;;;;;;18.10;81.00;;;;;;4983043;28;95745;-58
2021/10/02 01:50:19;;;;;;;;;;;18.10;81.00;;;;;;4980382;28;95933;-46
2021/10/02 01:52:50;;;;;;;;;;;18.10;81.00;;;;;;4981687;28;95783;-47
2021/10/02 01:55:23;;;;;;;;;;;18.10;81.00;;;;;;4981269;28;95335;-52
2021/10/02 01:57:57;;;;;;;;;;;18.10;80.90;;;;;;4985403;28;95905;-46
2021/10/02 02:00:29;;;;;;;;;;;18.10;80.90;;;;;;4982639;28;96985;-58
2021/10/02 02:03:01;;;;;;;;;;;18.10;80.80;;;;;;4982973;28;95754;-47
2021/10/02 02:05:33;;;;;;;;;;;18.10;80.70;;;;;;4980633;28;96203;-58
2021/10/02 02:08:05;;;;;;;;;;;18.10;80.70;;;;;;4977794;28;95756;-46
2021/10/02 02:10:38;;;;;;;;;;;18.10;80.70;;;;;;4977411;28;96054;-47
2021/10/02 02:13:10;;;;;;;;;;;18.10;80.60;;;;;;5007378;27;96592;-58
2021/10/02 02:15:43;;;;;;;;;;;18.10;80.60;;;;;;4977984;28;96234;-57
2021/10/02 02:18:18;;;;;;;;;;;18.10;80.60;;;;;;5015003;27;95725;-58
2021/10/02 02:20:55;;;;;;;;;;;18.10;81.20;;;;;;4981805;28;96530;-47
2021/10/02 02:23:25;;;;;;;;;;;18.10;80.50;;;;;;4976737;28;95628;-48
2021/10/02 02:25:56;;;;;;;;;;;18.10;80.50;;;;;;4986028;28;95912;-47
2021/10/02 02:28:26;;;;;;;;;;;18.10;80.50;;;;;;4980008;28;95966;-58
2021/10/02 02:30:57;;;;;;;;;;;18.10;80.40;;;;;;4978219;28;97087;-58
2021/10/02 02:33:27;;;;;;;;;;;18.10;80.30;;;;;;4982143;28;95824;-58
2021/10/02 02:35:58;;;;;;;;;;;18.10;80.30;;;;;;4978052;28;95330;-46
2021/10/02 02:38:29;;;;;;;;;;;18.20;72.20;;;;;;4981975;28;96103;-58
2021/10/02 02:40:59;;;;;;;;;;;18.10;80.20;;;;;;4974741;28;95973;-57
2021/10/02 02:43:33;;;;;;;;;;;18.20;80.30;;;;;;4978115;28;96228;-46
2021/10/02 02:46:17;;;;;;;;;;;18.20;80.30;;;;;;4975933;28;97989;-54
2021/10/02 02:48:57;;;;;;;;;;;18.20;80.30;;;;;;4982332;28;95832;-58
2021/10/02 02:51:35;;;;;;;;;;;18.20;80.20;;;;;;4986769;28;96169;-58
2021/10/02 02:54:22;;;;;;;;;;;18.20;80.20;;;;;;5020229;27;97683;-48
2021/10/02 02:56:53;;;;;;;;;;;18.20;80.20;;;;;;4981074;28;96568;-60
2021/10/02 02:59:27;;;;;;;;;;;18.20;80.50;;;;;;4981911;28;95904;-47
2021/10/02 03:01:59;;;;;;;;;;;18.20;80.20;;;;;;4973980;28;96077;-59
2021/10/02 03:04:31;;;;;;;;;;;18.20;80.00;;;;;;4982238;28;96981;-47
2021/10/02 03:07:03;;;;;;;;;;;18.20;79.80;;;;;;4979641;28;97562;-59
2021/10/02 03:09:40;;;;;;;;;;;18.20;79.60;;;;;;4982665;28;95648;-58
2021/10/02 03:12:11;;;;;;;;;;;18.20;79.60;;;;;;4984221;28;96666;-47
2021/10/02 03:14:46;;;;;;;;;;;18.20;79.60;;;;;;4989412;28;95759;-50
2021/10/02 03:17:17;;;;;;;;;;;18.20;79.70;;;;;;4983030;28;95486;-47
2021/10/02 03:19:47;;;;;;;;;;;18.20;79.60;;;;;;4985357;28;95829;-58
2021/10/02 03:22:16;;;;;;;;;;;18.30;71.30;;;;;;4987097;28;95975;-48
2021/10/02 03:24:46;;;;;;;;;;;18.20;79.30;;;;;;4986598;28;95792;-48
2021/10/02 03:27:17;;;;;;;;;;;18.20;79.00;;;;;;4987438;28;96235;-58
2021/10/02 03:29:48;;;;;;;;;;;18.20;78.90;;;;;;4991237;28;95800;-57
2021/10/02 03:32:20;;;;;;;;;;;18.20;78.70;;;;;;4969501;28;98532;-48
2021/10/02 03:34:55;;;;;;;;;;;18.30;72.90;;;;;;4987773;28;95933;-51
2021/10/02 03:37:27;;;;;;;;;;;18.30;79.00;;;;;;4989109;28;96006;-52
2021/10/02 03:39:59;;;;;;;;;;;18.30;79.60;;;;;;4986393;28;95827;-52
2021/10/02 03:42:29;;;;;;;;;;;18.40;79.20;;;;;;4985675;28;96045;-49
2021/10/02 03:44:59;;;;;;;;;;;18.50;79.10;;;;;;4984556;28;95760;-51
2021/10/02 03:47:28;;;;;;;;;;;18.70;79.60;;;;;;4981311;28;98439;-50
2021/10/02 03:49:58;;;;;;;;;;;18.90;78.60;;;;;;4983325;28;95912;-51
2021/10/02 03:52:28;;;;;;;;;;;19.00;78.30;;;;;;4985707;28;96394;-49
2021/10/02 03:54:59;;;;;;;;;;;19.20;78.20;;;;;;4984331;28;95757;-52
2021/10/02 03:57:29;;;;;;;;;;;19.30;77.90;;;;;;4985512;28;95604;-48
2021/10/02 04:00:03;;;;;;;;;;;19.40;77.70;;;;;;4988490;28;96074;-48
2021/10/02 04:02:34;;;;;;;;;;;19.50;77.50;;;;;;4978331;28;97041;-51
2021/10/02 04:05:07;;;;;;;;;;;19.50;77.30;;;;;;4983506;28;96060;-50
2021/10/02 04:07:38;;;;;;;;;;;19.50;77.00;;;;;;4985106;28;95681;-49
2021/10/02 04:10:09;;;;;;;;;;;19.50;76.80;;;;;;4978409;28;96860;-49
2021/10/02 04:12:40;;;;;;;;;;;19.50;68.80;;;;;;4973966;28;96188;-50
2021/10/02 04:15:11;;;;;;;;;;;19.40;76.40;;;;;;4982252;28;95398;-50
2021/10/02 04:17:41;;;;;;;;;;;19.40;76.50;;;;;;4983379;28;95330;-52
2021/10/02 04:20:12;;;;;;;;;;;19.40;76.30;;;;;;4983990;28;95821;-51
2021/10/02 04:22:43;;;;;;;;;;;19.50;76.60;;;;;;4983465;28;95929;-50
2021/10/02 04:25:13;;;;;;;;;;;19.50;76.30;;;;;;4983718;28;95774;-60
2021/10/02 04:27:44;;;;;;;;;;;19.50;76.30;;;;;;5010179;27;95452;-52
2021/10/02 04:30:15;;;;;;;;;;;19.40;76.10;;;;;;4976785;28;95963;-50
2021/10/02 04:32:46;;;;;;;;;;;19.40;75.80;;;;;;5010708;27;102114;-50
2021/10/02 04:35:15;;;;;;;;;;;19.40;75.90;;;;;;4980136;28;96675;-51
2021/10/02 04:37:47;;;;;;;;;;;19.40;75.50;;;;;;5013219;27;95854;-50
2021/10/02 04:40:17;;;;;;;;;;;19.40;75.10;;;;;;4984778;28;96410;-50
2021/10/02 04:42:49;;;;;;;;;;;19.40;75.00;;;;;;4983852;28;96516;-60
2021/10/02 04:45:18;;;;;;;;;;;19.40;75.10;;;;;;4979115;28;100664;-51
2021/10/02 04:47:48;;;;;;;;;;;19.50;75.40;;;;;;4984410;28;95884;-47
2021/10/02 04:50:17;;;;;;;;;;;19.50;75.60;;;;;;4988707;28;98059;-50
2021/10/02 04:52:46;;;;;;;;;;;19.50;75.60;;;;;;4986038;28;95959;-48
2021/10/02 04:55:17;;;;;;;;;;;19.60;75.70;;;;;;4986883;28;95920;-51
2021/10/02 04:57:47;;;;;;;;;;;19.60;75.80;;;;;;4987423;28;96428;-54
2021/10/02 05:00:17;;;;;;;;;;;19.70;75.80;;;;;;4982391;28;96479;-47
2021/10/02 05:02:48;;;;;;;;;;;19.70;75.80;;;;;;4984549;28;96796;-48
2021/10/02 05:05:19;;;;;;;;;;;19.70;75.80;;;;;;4983704;28;95999;-49
2021/10/02 05:07:49;;;;;;;;;;;19.80;76.10;;;;;;4985214;28;95745;-53
2021/10/02 05:10:21;;;;;;;;;;;19.80;76.00;;;;;;4981733;28;96462;-49
2021/10/02 05:12:50;;;;;;;;;;;19.80;75.90;;;;;;4976708;28;96343;-48
2021/10/02 05:15:21;;;;;;;;;;;19.80;75.90;;;;;;4982150;28;95733;-48
2021/10/02 05:17:51;;;;;;;;;;;19.80;75.90;;;;;;4984716;28;96943;-48
2021/10/02 05:20:21;;;;;;;;;;;19.90;76.30;;;;;;4985215;28;96248;-49
2021/10/02 05:22:52;;;;;;;;;;;19.90;76.10;;;;;;4991666;28;95846;-49
2021/10/02 05:25:22;;;;;;;;;;;19.90;76.20;;;;;;4990697;28;96003;-52
2021/10/02 05:27:52;;;;;;;;;;;19.90;76.40;;;;;;4992224;28;95702;-48
2021/10/02 05:30:22;;;;;;;;;;;19.80;76.40;;;;;;4982957;28;96158;-50
2021/10/02 05:32:53;;;;;;;;;;;19.80;76.50;;;;;;4971325;28;95836;-49
2021/10/02 05:35:24;;;;;;;;;;;19.80;77.00;;;;;;4969032;28;98093;-58
2021/10/02 05:37:54;;;;;;;;;;;19.80;76.50;;;;;;4970107;28;95875;-49
2021/10/02 05:40:24;;;;;;;;;;;19.80;76.50;;;;;;4971833;28;95704;-48
2021/10/02 05:42:55;;;;;;;;;;;19.80;76.60;;;;;;4970963;28;95873;-50
2021/10/02 05:45:24;;;;;;;;;;;19.80;76.50;;;;;;4966098;28;98228;-48
2021/10/02 05:47:54;;;;;;;;;;;19.80;76.50;;;;;;4986401;28;95819;-48
2021/10/02 05:50:23;;;;;;;;;;;19.70;76.50;;;;;;4991825;28;95970;-47
2021/10/02 05:52:53;;;;;;;;;;;19.70;76.60;;;;;;4989378;28;96112;-48
2021/10/02 05:55:24;;;;;;;;;;;19.70;76.50;;;;;;4989352;28;95856;-55
2021/10/02 05:57:54;;;;;;;;;;;19.70;76.50;;;;;;4985680;28;95432;-48
2021/10/02 06:00:24;;;;;;;;;;;19.70;76.70;;;;;;4986786;28;95747;-48
2021/10/02 06:03:00;;;;;;;;;;;19.70;76.60;;;;;;4991446;28;96017;-48
2021/10/02 06:05:30;;;;;;;;;;;19.70;76.50;;;;;;4991133;28;95584;-48
2021/10/02 06:08:03;;;;;;;;;;;19.60;76.60;;;;;;4990772;28;95472;-49
2021/10/02 06:10:34;;;;;;;;;;;19.60;76.60;;;;;;4983617;28;96144;-57
2021/10/02 06:13:05;;;;;;;;;;;19.60;76.70;;;;;;4985787;28;95843;-48
2021/10/02 06:15:36;;;;;;;;;;;19.60;76.80;;;;;;5017502;27;95634;-57
2021/10/02 06:18:06;;;;;;;;;;;19.60;76.80;;;;;;4991602;28;95739;-48
2021/10/02 06:20:36;;;;;;;;;;;19.60;76.70;;;;;;4990431;28;95964;-48
2021/10/02 06:23:05;;;;;;;;;;;19.50;76.70;;;;;;4991438;28;96429;-58
2021/10/02 06:25:34;;;;;;;;;;;19.60;69.20;;;;;;4987722;28;98271;-47
2021/10/02 06:28:05;;;;;;;;;;;19.60;77.00;;;;;;4990237;28;95508;-58
2021/10/02 06:30:35;;;;;;;;;;;19.50;76.90;;;;;;4986663;28;95755;-55
2021/10/02 06:33:06;;;;;;;;;;;19.50;76.90;;;;;;4991013;28;95833;-48
2021/10/02 06:35:37;;;;;;;;;;;19.50;77.20;;;;;;4989324;28;96101;-49
2021/10/02 06:38:07;;;;;;;;;;;19.50;77.20;;;;;;4991339;28;95886;-48
2021/10/02 06:40:40;;;;;;;;;;;19.60;69.40;;;;;;4991162;28;95392;-47
2021/10/02 06:43:10;;;;;;;;;;;19.50;77.30;;;;;;4988701;28;95803;-49
2021/10/02 06:45:40;;;;;;;;;;;19.50;77.20;;;;;;4984979;28;95474;-57
2021/10/02 06:48:09;;;;;;;;;;;19.50;77.40;;;;;;4990704;28;96482;-57
2021/10/02 06:50:39;;;;;;;;;;;19.40;77.50;;;;;;4991031;28;95288;-49
2021/10/02 06:53:09;;;;;;;;;;;19.40;77.40;;;;;;4988156;28;95844;-57
2021/10/02 06:55:40;;;;;;;;;;;19.50;69.70;;;;;;4990732;28;96158;-56
2021/10/02 06:58:10;;;;;;;;;;;19.40;77.30;;;;;;4987902;28;95368;-50
2021/10/02 07:00:42;;;;;;;;;;;19.40;77.50;;;;;;4984814;28;95447;-50
2021/10/02 07:03:14;;;;;;;;;;;19.40;77.40;;;;;;4989868;28;95809;-49
2021/10/02 07:05:46;;;;;;;;;;;19.40;77.50;;;;;;4990168;28;95648;-48
2021/10/02 07:08:18;;;;;;;;;;;19.30;77.90;;;;;;4988432;28;95406;-48
2021/10/02 07:10:49;;;;;;;;;;;19.40;77.60;;;;;;4982414;28;95915;-48
2021/10/02 07:13:21;;;;;;;;;;;19.30;77.50;;;;;;4984524;28;95970;-57
2021/10/02 07:15:53;;;;;;;;;;;19.30;77.60;;;;;;4984366;28;95785;-49
2021/10/02 07:18:23;;;;;;;;;;;19.30;77.70;;;;;;4987471;28;96827;-57
2021/10/02 07:20:53;;;;;;;;;;;19.30;77.80;;;;;;4989370;28;95936;-57
2021/10/02 07:23:29;;;;;;;;;;;19.30;77.70;;;;;;4984012;28;95977;-56
2021/10/02 07:25:58;;;;;;;;;;;19.30;77.70;;;;;;4989824;28;95789;-56
2021/10/02 07:28:28;;;;;;;;;;;19.30;77.60;;;;;;4990460;28;95864;-49
2021/10/02 07:30:59;;;;;;;;;;;19.30;77.50;;;;;;4984874;28;95874;-57
2021/10/02 07:33:29;;;;;;;;;;;19.30;77.50;;;;;;4988239;28;95868;-56
2021/10/02 07:36:00;;;;;;;;;;;19.20;77.40;;;;;;4984494;28;95386;-49
2021/10/02 07:38:30;;;;;;;;;;;19.20;77.50;;;;;;4990184;28;95554;-48
2021/10/02 07:41:02;;;;;;;;;;;19.20;77.60;;;;;;4989471;28;95417;-47
2021/10/02 07:43:32;;;;;;;;;;;19.20;77.60;;;;;;4989646;28;95498;-56
2021/10/02 07:46:01;;;;;;;;;;;19.20;77.40;;;;;;4982375;28;97326;-49
2021/10/02 07:48:32;;;;;;;;;;;19.10;77.50;;;;;;4988187;28;95906;-57
2021/10/02 07:51:01;;;;;;;;;;;19.10;77.60;;;;;;4987385;28;95974;-56
2021/10/02 07:53:33;;;;;;;;;;;19.10;77.60;;;;;;4985225;28;96464;-58
2021/10/02 07:56:04;;;;;;;;;;;19.10;77.70;;;;;;4990693;28;95610;-55
2021/10/02 07:58:34;;;;;;;;;;;19.10;77.60;;;;;;4990411;28;95499;-47
2021/10/02 08:01:05;;;;;;;;;;;19.10;77.60;;;;;;4984916;28;95880;-59
2021/10/02 08:03:36;;;;;;;;;;;19.00;77.70;;;;;;4988490;28;96468;-58
2021/10/02 08:06:07;;;;;;;;;;;19.10;77.80;;;;;;4988021;28;95741;-49
2021/10/02 08:08:38;;;;;;;;;;;19.00;77.70;;;;;;4988257;28;95969;-49
2021/10/02 08:11:10;;;;;;;;;;;19.00;77.70;;;;;;4980400;28;95787;-50
2021/10/02 08:13:40;;;;;;;;;;;19.00;77.80;;;;;;4983756;28;97386;-58
2021/10/02 08:16:12;;;;;;;;;;;19.00;77.80;;;;;;4984650;28;95821;-49
2021/10/02 08:18:44;;;;;;;;;;;19.00;77.80;;;;;;4989831;28;95385;-58
2021/10/02 08:21:15;;;;;;;;;;;19.00;77.90;;;;;;4992909;28;95713;-58
2021/10/02 08:23:46;;;;;;;;;;;19.00;77.90;;;;;;4990911;28;95901;-58
2021/10/02 08:26:17;;;;;;;;;;;19.00;78.00;;;;;;4991302;28;95907;-56
2021/10/02 08:28:53;;;;;;;;;;;19.00;78.10;;;;;;4990888;28;95620;-55
2021/10/02 08:31:23;;;;;;;;;;;19.00;78.10;;;;;;4988856;28;96099;-57
2021/10/02 08:33:54;;;;;;;;;;;18.90;78.00;;;;;;4992849;28;96414;-58
2021/10/02 08:36:27;;;;;;;;;;;18.90;78.00;;;;;;4992012;28;97482;-58
2021/10/02 08:39:01;;;;;;;;;;;18.90;77.90;;;;;;4983521;28;95227;-59
2021/10/02 08:41:31;;;;;;;;;;;19.00;69.90;;;;;;5021895;27;95423;-58
2021/10/02 08:44:01;;;;;;;;;;;18.90;77.70;;;;;;4992586;28;96494;-49
2021/10/02 08:46:31;;;;;;;;;;;18.90;77.70;;;;;;4986278;28;96029;-53
2021/10/02 08:49:08;;;;;;;;;;;18.90;77.70;;;;;;4992782;28;95653;-58
2021/10/02 08:51:41;;;;;;;;;;;18.90;77.70;;;;;;4982830;28;95717;-57
2021/10/02 08:54:12;;;;;;;;;;;18.90;77.60;;;;;;4991275;28;96446;-59
2021/10/02 08:56:44;;;;;;;;;;;18.90;77.70;;;;;;4988637;28;95851;-54
2021/10/02 08:59:15;;;;;;;;;;;18.90;77.70;;;;;;4990573;28;96223;-52
2021/10/02 09:01:46;;;;;;;;;;;19.00;77.90;;;;;;4987661;28;95764;-60
2021/10/02 09:04:17;;;;;;;;;;;18.90;77.80;;;;;;5020979;27;96123;-49
2021/10/02 09:06:48;;;;;;;;;;;18.90;77.80;;;;;;4989224;28;95720;-61
2021/10/02 09:09:18;;;;;;;;;;;18.90;77.80;;;;;;4991746;28;95654;-49
2021/10/02 09:11:51;;;;;;;;;;;19.00;77.90;;;;;;4982781;28;96097;-60
2021/10/02 09:14:23;;;;;;;;;;;18.90;77.80;;;;;;4990594;28;95829;-49
2021/10/02 09:16:55;;;;;;;;;;;18.90;77.80;;;;;;4990854;28;95562;-49
2021/10/02 09:19:25;;;;;;;;;;;18.90;77.80;;;;;;4990698;28;95590;-48
2021/10/02 09:21:57;;;;;;;;;;;18.90;77.80;;;;;;4991732;28;95294;-48
2021/10/02 09:24:30;;;;;;;;;;;18.90;77.80;;;;;;4991519;28;95875;-61
2021/10/02 09:27:00;;;;;;;;;;;18.90;77.80;;;;;;4992050;28;95775;-60
2021/10/02 09:29:35;;;;;;;;;;;18.90;77.80;;;;;;4991154;28;95665;-49
2021/10/02 09:32:06;;;;;;;;;;;18.90;77.80;;;;;;4986655;28;95772;-61
2021/10/02 09:34:44;;;;;;;;;;;18.90;77.80;;;;;;5019822;27;96734;-61
2021/10/02 09:37:19;;;;;;;;;;;18.90;77.80;;;;;;5016743;27;95594;-50
2021/10/02 09:39:50;;;;;;;;;;;18.90;77.90;;;;;;5014535;27;95713;-48
2021/10/02 09:42:27;;;;;;;;;;;18.90;77.80;;;;;;4983240;28;95955;-60
2021/10/02 09:45:00;;;;;;;;;;;18.90;77.80;;;;;;4985234;28;96409;-52
2021/10/02 09:47:33;;;;;;;;;;;18.90;77.80;;;;;;4985920;28;95302;-50
2021/10/02 09:50:06;;;;;;;;;;;18.90;69.80;;;;;;4987757;28;95929;-49
2021/10/02 09:52:38;;;;;;;;;;;18.90;77.70;;;;;;4989130;28;96367;-49
2021/10/02 09:55:19;;;;;;;;;;;18.80;77.60;;;;;;4987292;28;96039;-49
2021/10/02 09:57:50;;;;;;;;;;;18.80;77.60;;;;;;4981513;28;95874;-49
2021/10/02 10:00:41;;;;;;;;;;;18.80;77.70;;;;;;4980906;28;95767;-62
2021/10/02 10:03:13;;;;;;;;;;;18.80;77.90;;;;;;4987673;28;97469;-49
2021/10/02 10:05:48;;;;;;;;;;;18.80;77.90;;;;;;4986698;28;95921;-61
2021/10/02 10:08:28;;;;;;;;;;;18.80;77.70;;;;;;4986974;28;96645;-61
2021/10/02 10:11:06;;;;;;;;;;;18.80;77.80;;;;;;4986480;28;95813;-63
2021/10/02 10:13:36;;;;;;;;;;;18.80;77.90;;;;;;4981733;28;95680;-61
2021/10/02 10:16:10;;;;;;;;;;;18.80;77.80;;;;;;4980788;28;98403;-50
2021/10/02 10:18:41;;;;;;;;;;;18.90;77.80;;;;;;4981883;28;95903;-50
2021/10/02 10:21:13;;;;;;;;;;;18.80;77.70;;;;;;4987458;28;97749;-49
2021/10/02 10:23:48;;;;;;;;;;;18.80;77.80;;;;;;4981468;28;95808;-50
2021/10/02 10:26:19;;;;;;;;;;;18.80;77.80;;;;;;4986426;28;95944;-62
2021/10/02 10:28:49;;;;;;;;;;;18.80;77.90;;;;;;4987702;28;95637;-50
2021/10/02 10:31:26;;;;;;;;;;;18.80;77.90;;;;;;4997844;28;96042;-51
2021/10/02 10:33:57;;;;;;;;;;;18.90;71.40;;;;;;4983157;28;95385;-62
2021/10/02 10:39:27;;;;;;;;;;;18.80;77.90;;;;;;4985648;28;95882;-60
2021/10/02 10:41:58;;;;;;;;;;;18.80;77.80;;;;;;4982838;28;95791;-50
2021/10/02 10:44:27;;;;;;;;;;;18.80;77.70;;;;;;4981676;28;95635;-61
2021/10/02 10:46:57;;;;;;;;;;;18.80;77.60;;;;;;4978283;28;95880;-49
2021/10/02 10:49:26;;;;;;;;;;;18.80;77.60;;;;;;4984070;28;95711;-51
2021/10/02 10:51:58;;;;;;;;;;;18.80;77.60;;;;;;4980330;28;97194;-50
2021/10/02 10:54:29;;;;;;;;;;;18.70;77.80;;;;;;4982683;28;95748;-53
2021/10/02 10:57:00;;;;;;;;;;;18.80;78.30;;;;;;4983421;28;95865;-49
2021/10/02 10:59:50;;;;;;;;;;;18.70;78.30;;;;;;4981378;28;95959;-53
2021/10/02 11:03:00;;;;;;;;;;;18.70;78.40;;;;;;4979831;28;95895;-53
2021/10/02 11:05:39;;;;;;;;;;;18.70;78.30;;;;;;4982626;28;95635;-51
2021/10/02 11:08:11;;;;;;;;;;;18.60;78.30;;;;;;4980454;28;95967;-54
2021/10/02 11:10:44;;;;;;;;;;;18.70;78.40;;;;;;4970336;28;96295;-49
2021/10/02 11:13:16;;;;;;;;;;;18.60;78.30;;;;;;4970947;28;96159;-49
2021/10/02 11:15:47;;;;;;;;;;;18.60;78.40;;;;;;4983634;28;95638;-50
2021/10/02 11:18:36;;;;;;;;;;;18.60;78.40;;;;;;4983988;28;95823;-50
2021/10/02 11:21:07;;;;;;;;;;;18.50;78.30;;;;;;4987371;28;96430;-49
2021/10/02 11:23:56;;;;;;;;;;;18.60;78.30;;;;;;4979519;28;95474;-49
2021/10/02 11:26:27;;;;;;;;;;;18.50;78.40;;;;;;4984909;28;95780;-50
2021/10/02 11:28:59;;;;;;;;;;;18.50;78.40;;;;;;4967319;28;96557;-49
2021/10/02 11:31:29;;;;;;;;;;;18.50;78.40;;;;;;4977788;28;95268;-52
2021/10/02 11:34:00;;;;;;;;;;;18.50;78.50;;;;;;4981951;28;95946;-49
2021/10/02 11:36:31;;;;;;;;;;;18.50;78.50;;;;;;4975597;28;95926;-62
2021/10/02 11:39:12;;;;;;;;;;;18.40;78.40;;;;;;4981353;28;97181;-62
2021/10/02 11:41:45;;;;;;;;;;;18.50;78.50;;;;;;5016225;27;95788;-52
2021/10/02 11:44:21;;;;;;;;;;;18.40;78.50;;;;;;4985430;28;95750;-52
2021/10/02 11:46:55;;;;;;;;;;;18.40;78.40;;;;;;5011959;27;95798;-63
2021/10/02 11:49:25;;;;;;;;;;;18.40;78.40;;;;;;4983889;28;96867;-51
2021/10/02 11:52:12;;;;;;;;;;;18.40;78.50;;;;;;4982524;28;95842;-50
2021/10/02 11:54:43;;;;;;;;;;;18.30;79.00;;;;;;4985979;28;95735;-50
2021/10/02 11:57:15;;;;;;;;;;;18.40;78.40;;;;;;4989759;28;95285;-49
2021/10/02 11:59:47;;;;;;;;;;;18.40;78.40;;;;;;4980698;28;96680;-63
2021/10/02 12:02:18;;;;;;;;;;;18.30;78.40;;;;;;4983089;28;95427;-64
2021/10/02 12:04:51;;;;;;;;;;;18.40;78.40;;;;;;4988245;28;97257;-49
2021/10/02 12:07:22;;;;;;;;;;;18.30;78.40;;;;;;4985338;28;97495;-48
2021/10/02 12:09:56;;;;;;;;;;;18.30;78.40;;;;;;4982897;28;95885;-63
2021/10/02 12:12:28;;;;;;;;;;;18.30;78.40;;;;;;4980856;28;96701;-63
2021/10/02 12:14:59;;;;;;;;;;;18.30;78.40;;;;;;4984449;28;95628;-62
2021/10/02 12:17:30;;;;;;;;;;;18.30;78.40;;;;;;4989798;28;97249;-63
2021/10/02 12:20:03;;;;;;;;;;;18.30;78.50;;;;;;4980958;28;95843;-64
2021/10/02 12:22:34;;;;;;;;;;;18.20;78.40;;;;;;4988555;28;96021;-49
2021/10/02 12:25:05;;;;;;;;;;;18.20;78.40;;;;;;4990442;28;95534;-63
2021/10/02 12:27:36;;;;;;;;;;;18.20;78.40;;;;;;4993596;28;95893;-51
2021/10/02 12:30:06;;;;;;;;;;;18.20;78.40;;;;;;4990092;28;96451;-52
2021/10/02 12:32:37;;;;;;;;;;;18.30;70.60;;;;;;4993728;28;95588;-62
2021/10/02 12:35:08;;;;;;;;;;;18.20;78.50;;;;;;4993153;28;96091;-62
2021/10/02 12:37:40;;;;;;;;;;;18.20;78.50;;;;;;4993351;28;95345;-63
2021/10/02 12:40:12;;;;;;;;;;;18.20;78.50;;;;;;4990538;28;96183;-49
2021/10/02 12:42:44;;;;;;;;;;;18.20;78.50;;;;;;4991279;28;95764;-49
2021/10/02 12:45:20;;;;;;;;;;;18.10;78.60;;;;;;4988933;28;95695;-51
2021/10/02 12:47:54;;;;;;;;;;;18.10;78.50;;;;;;4991831;28;95940;-63
2021/10/02 12:50:25;;;;;;;;;;;18.10;78.50;;;;;;4991280;28;95780;-62
2021/10/02 12:52:58;;;;;;;;;;;18.10;78.50;;;;;;4989132;28;95727;-62
2021/10/02 12:55:28;;;;;;;;;;;18.10;78.50;;;;;;4989740;28;95978;-63
2021/10/02 12:58:00;;;;;;;;;;;18.10;78.60;;;;;;4987795;28;95751;-64
2021/10/02 13:00:31;;;;;;;;;;;18.10;78.60;;;;;;4982861;28;96765;-52
2021/10/02 13:03:03;;;;;;;;;;;18.10;78.60;;;;;;4983808;28;95824;-51
2021/10/02 13:05:36;;;;;;;;;;;18.10;78.60;;;;;;4989255;28;95638;-50
2021/10/02 13:08:08;;;;;;;;;;;18.10;78.60;;;;;;4989912;28;95673;-57
2021/10/02 13:10:39;;;;;;;;;;;18.00;78.50;;;;;;4988451;28;96559;-51
2021/10/02 13:13:10;;;;;;;;;;;18.00;78.50;;;;;;4983331;28;96900;-51
2021/10/02 13:15:41;;;;;;;;;;;18.00;78.80;;;;;;4985323;28;95968;-61
2021/10/02 13:18:14;;;;;;;;;;;18.00;78.80;;;;;;4990063;28;96015;-50
2021/10/02 13:20:47;;;;;;;;;;;18.00;78.70;;;;;;4991614;28;95789;-61
2021/10/02 13:23:19;;;;;;;;;;;18.00;78.70;;;;;;4991363;28;95689;-50
2021/10/02 13:25:53;;;;;;;;;;;18.00;78.80;;;;;;4984826;28;96148;-63
2021/10/02 13:28:25;;;;;;;;;;;18.10;78.90;;;;;;4990701;28;97382;-49
2021/10/02 13:30:57;;;;;;;;;;;18.00;78.90;;;;;;4984407;28;95994;-49
2021/10/02 13:33:27;;;;;;;;;;;18.00;78.80;;;;;;4990185;28;95606;-63
2021/10/02 13:35:59;;;;;;;;;;;18.00;78.80;;;;;;4991742;28;95901;-49
2021/10/02 13:38:39;;;;;;;;;;;18.00;78.80;;;;;;4988071;28;95707;-50
2021/10/02 13:41:13;;;;;;;;;;;18.00;78.80;;;;;;4991277;28;96411;-52
2021/10/02 13:44:09;;;;;;;;;;;18.00;78.70;;;;;;4991546;28;95321;-62
2021/10/02 13:46:38;;;;;;;;;;;18.00;78.60;;;;;;4983617;28;95804;-64
2021/10/02 13:49:10;;;;;;;;;;;18.00;78.60;;;;;;4991145;28;95832;-51
2021/10/02 13:51:41;;;;;;;;;;;18.00;78.50;;;;;;4991156;28;96220;-64
2021/10/02 13:54:12;;;;;;;;;;;18.00;78.50;;;;;;4985236;28;95374;-62
2021/10/02 13:56:43;;;;;;;;;;;18.00;78.50;;;;;;4987981;28;95961;-49
2021/10/02 13:59:14;;;;;;;;;;;18.00;78.40;;;;;;4991668;28;95712;-62
2021/10/02 14:01:44;;;;;;;;;;;18.00;78.40;;;;;;4985672;28;95832;-49
2021/10/02 14:04:15;;;;;;;;;;;18.00;78.40;;;;;;4989756;28;95395;-63
2021/10/02 14:06:48;;;;;;;;;;;18.00;78.40;;;;;;4989071;28;95604;-62
2021/10/02 14:09:19;;;;;;;;;;;18.00;78.30;;;;;;4990491;28;95476;-62
2021/10/02 14:11:50;;;;;;;;;;;18.00;78.30;;;;;;4984863;28;97015;-62
2021/10/02 14:14:21;;;;;;;;;;;18.00;78.30;;;;;;4984445;28;96473;-62
2021/10/02 14:16:51;;;;;;;;;;;18.00;78.90;;;;;;4983616;28;95990;-48
2021/10/02 14:19:22;;;;;;;;;;;18.00;78.30;;;;;;4988520;28;95804;-63
2021/10/02 14:21:52;;;;;;;;;;;17.90;78.20;;;;;;4989690;28;95808;-50
2021/10/02 14:24:22;;;;;;;;;;;17.90;78.20;;;;;;4989129;28;95884;-62
2021/10/02 14:26:52;;;;;;;;;;;18.00;78.10;;;;;;4988836;28;96304;-62
2021/10/02 14:29:21;;;;;;;;;;;18.00;78.10;;;;;;4986493;28;95295;-62
2021/10/02 14:31:50;;;;;;;;;;;17.90;78.00;;;;;;4977318;28;96295;-52
2021/10/02 14:34:20;;;;;;;;;;;18.00;78.50;;;;;;4990005;28;95319;-66
2021/10/02 14:36:51;;;;;;;;;;;18.00;78.70;;;;;;4983515;28;95338;-62
2021/10/02 14:39:21;;;;;;;;;;;18.00;78.70;;;;;;4986628;28;96148;-64
2021/10/02 14:41:51;;;;;;;;;;;18.00;78.60;;;;;;4984298;28;96079;-64
2021/10/02 14:44:21;;;;;;;;;;;18.00;78.60;;;;;;4989269;28;95900;-63
2021/10/02 14:46:52;;;;;;;;;;;17.90;78.50;;;;;;4982517;28;95340;-50
2021/10/02 14:49:22;;;;;;;;;;;17.90;78.40;;;;;;4976288;28;95608;-54
2021/10/02 14:51:57;;;;;;;;;;;17.90;78.50;;;;;;4981267;28;95877;-62
2021/10/02 14:54:31;;;;;;;;;;;17.90;78.50;;;;;;4984753;28;96016;-64
2021/10/02 14:57:05;;;;;;;;;;;17.90;78.60;;;;;;4980751;28;95367;-64
2021/10/02 14:59:37;;;;;;;;;;;17.90;78.70;;;;;;4985166;28;96062;-49
2021/10/02 15:02:07;;;;;;;;;;;17.90;78.60;;;;;;4980518;28;99526;-50
2021/10/02 15:04:40;;;;;;;;;;;17.90;78.70;;;;;;4981112;28;95866;-63
2021/10/02 15:07:12;;;;;;;;;;;17.90;78.70;;;;;;4980254;28;95251;-51
2021/10/02 15:09:43;;;;;;;;;;;17.90;78.70;;;;;;4979522;28;95823;-62
2021/10/02 15:12:16;;;;;;;;;;;17.90;78.70;;;;;;4977662;28;100225;-49
2021/10/02 15:14:47;;;;;;;;;;;17.90;78.70;;;;;;4980551;28;95881;-63
2021/10/02 15:17:18;;;;;;;;;;;17.90;78.70;;;;;;4986351;28;100847;-63
2021/10/02 15:19:48;;;;;;;;;;;17.90;78.70;;;;;;4985732;28;95543;-63
2021/10/02 15:22:18;;;;;;;;;;;17.90;78.80;;;;;;4986446;28;95923;-63
2021/10/02 15:24:51;;;;;;;;;;;17.90;79.10;;;;;;4989395;28;96743;-63
2021/10/02 15:27:28;;;;;;;;;;;17.90;79.30;;;;;;4983896;28;96103;-63
2021/10/02 15:29:59;;;;;;;;;;;17.90;79.40;;;;;;4989565;28;95837;-63
2021/10/02 15:32:32;;;;;;;;;;;17.90;79.40;;;;;;4987718;28;95712;-63
2021/10/02 15:35:02;;;;;;;;;;;17.90;79.40;;;;;;4987665;28;95866;-63
2021/10/02 15:37:36;;;;;;;;;;;17.80;79.30;;;;;;4989834;28;95265;-62
2021/10/02 15:40:06;;;;;;;;;;;17.80;79.40;;;;;;4990758;28;95725;-62
2021/10/02 15:42:41;;;;;;;;;;;17.80;79.40;;;;;;4985876;28;95803;-63